createdAt,value
2022-08-16T00:01:28.882Z,20.66
2022-08-16T00:04:02.124Z,20.64
2022-08-16T00:06:33.235Z,20.61
2022-08-16T00:09:01.165Z,20.60
2022-08-16T00:11:29.236Z,20.59
2022-08-16T00:13:57.730Z,20.57
2022-08-16T00:17:05.388Z,20.50
2022-08-16T00:19:22.669Z,20.47
2022-08-16T00:21:54.500Z,20.47
2022-08-16T00:24:31.150Z,20.48
2022-08-16T00:27:03.353Z,20.48
2022-08-16T00:29:31.671Z,20.44
2022-08-16T00:32:05.567Z,20.44
2022-08-16T00:34:43.922Z,20.46
2022-08-16T00:37:16.886Z,20.46
2022-08-16T00:39:47.676Z,20.47
2022-08-16T00:42:29.550Z,20.46
2022-08-16T00:45:08.044Z,20.43
2022-08-16T00:47:42.522Z,20.41
2022-08-16T00:50:35.980Z,20.38
2022-08-16T00:53:12.216Z,20.36
2022-08-16T00:55:44.618Z,20.32
2022-08-16T00:58:16.235Z,20.29
2022-08-16T01:00:54.354Z,20.20
2022-08-16T01:03:30.429Z,20.13
2022-08-16T01:06:40.296Z,20.06
2022-08-16T01:08:55.157Z,20.07
2022-08-16T01:11:27.135Z,20.04
2022-08-16T01:14:10.486Z,20.04
2022-08-16T01:16:40.766Z,20.05
2022-08-16T01:19:25.874Z,20.05
2022-08-16T01:22:58.860Z,19.96
2022-08-16T01:24:59.676Z,19.86
2022-08-16T01:27:44.853Z,19.80
2022-08-16T01:30:19.435Z,19.78
2022-08-16T01:33:01.847Z,19.79
2022-08-16T01:35:41.990Z,19.84
2022-08-16T01:38:33.431Z,19.88
2022-08-16T01:41:04.839Z,19.94
2022-08-16T01:43:34.254Z,19.98
2022-08-16T01:46:37.732Z,19.99
2022-08-16T01:48:56.051Z,19.96
2022-08-16T01:51:27.210Z,19.97
2022-08-16T01:53:56.151Z,19.99
2022-08-16T01:56:25.548Z,19.99
2022-08-16T01:58:55.520Z,19.98
2022-08-16T02:01:26.246Z,19.96
2022-08-16T02:03:58.483Z,19.93
2022-08-16T02:06:34.717Z,19.90
2022-08-16T02:09:11.925Z,19.87
2022-08-16T02:11:47.500Z,19.84
2022-08-16T02:14:18.001Z,19.79
2022-08-16T02:16:46.487Z,19.76
2022-08-16T02:19:15.882Z,19.74
2022-08-16T02:22:09.186Z,19.67
2022-08-16T02:24:46.078Z,19.61
2022-08-16T02:27:14.871Z,19.61
2022-08-16T02:29:43.245Z,19.56
2022-08-16T02:32:49.000Z,19.52
2022-08-16T02:35:02.030Z,19.54
2022-08-16T02:37:39.773Z,19.56
2022-08-16T02:40:18.898Z,19.57
2022-08-16T02:42:50.050Z,19.58
2022-08-16T02:45:24.780Z,19.54
2022-08-16T02:48:00.978Z,19.55
2022-08-16T02:50:54.029Z,19.59
2022-08-16T02:53:32.084Z,19.56
2022-08-16T02:56:00.638Z,19.55
2022-08-16T02:58:29.218Z,19.57
2022-08-16T03:00:58.591Z,19.57
2022-08-16T03:04:41.434Z,19.53
2022-08-16T03:06:41.831Z,19.43
2022-08-16T03:09:10.699Z,19.41
2022-08-16T03:11:42.323Z,19.43
2022-08-16T03:14:11.592Z,19.45
2022-08-16T03:16:42.171Z,19.45
2022-08-16T03:19:48.134Z,19.45
2022-08-16T03:22:28.403Z,19.39
2022-08-16T03:25:02.042Z,19.36
2022-08-16T03:27:32.530Z,19.42
2022-08-16T03:30:16.709Z,19.41
2022-08-16T03:32:47.972Z,19.40
2022-08-16T03:35:23.801Z,19.43
2022-08-16T03:38:03.937Z,19.43
2022-08-16T03:40:35.470Z,19.40
2022-08-16T03:43:20.538Z,19.40
2022-08-16T03:45:52.319Z,19.42
2022-08-16T03:48:36.987Z,19.37
2022-08-16T03:51:12.182Z,19.31
2022-08-16T03:53:42.774Z,19.30
2022-08-16T03:56:19.830Z,19.31
2022-08-16T03:58:50.819Z,19.32
2022-08-16T04:01:22.869Z,19.37
2022-08-16T04:03:52.782Z,19.40
2022-08-16T04:06:21.941Z,19.36
2022-08-16T04:08:50.847Z,19.38
2022-08-16T04:11:18.958Z,19.42
2022-08-16T04:13:58.848Z,19.51
2022-08-16T04:16:32.385Z,19.63
2022-08-16T04:19:04.679Z,19.67
2022-08-16T04:21:35.572Z,19.92
2022-08-16T04:24:07.925Z,20.24
2022-08-16T04:26:36.243Z,20.11
2022-08-16T04:29:16.659Z,20.13
2022-08-16T04:31:56.385Z,20.74
2022-08-16T04:34:28.815Z,20.68
2022-08-16T04:37:01.251Z,20.43
2022-08-16T04:39:45.912Z,20.49
2022-08-16T04:42:17.752Z,20.65
2022-08-16T04:44:53.938Z,20.62
2022-08-16T04:47:33.104Z,20.47
2022-08-16T04:50:20.000Z,20.43
2022-08-16T04:52:49.707Z,20.41
2022-08-16T04:55:21.506Z,20.42
2022-08-16T04:58:00.006Z,20.47
2022-08-16T05:00:34.334Z,20.48
2022-08-16T05:03:08.395Z,20.46
2022-08-16T05:05:55.415Z,20.52
2022-08-16T05:08:30.714Z,20.60
2022-08-16T05:11:03.534Z,20.71
2022-08-16T05:13:41.112Z,20.71
2022-08-16T05:16:20.082Z,20.80
2022-08-16T05:18:51.105Z,20.92
2022-08-16T05:21:20.768Z,20.98
2022-08-16T05:23:55.860Z,21.05
2022-08-16T05:26:28.873Z,21.15
2022-08-16T05:28:58.578Z,21.30
2022-08-16T05:31:29.988Z,21.38
2022-08-16T05:34:04.521Z,21.44
2022-08-16T05:36:34.358Z,21.57
2022-08-16T05:39:09.416Z,21.62
2022-08-16T05:41:44.551Z,21.67
2022-08-16T05:44:23.160Z,21.78
2022-08-16T05:47:00.196Z,21.87
2022-08-16T05:49:38.657Z,21.97
2022-08-16T05:52:11.693Z,22.03
2022-08-16T05:54:47.329Z,22.10
2022-08-16T05:57:20.543Z,22.20
2022-08-16T05:59:50.674Z,22.35
2022-08-16T06:02:33.417Z,22.43
2022-08-16T06:05:02.360Z,22.50
2022-08-16T06:07:32.336Z,22.53
2022-08-16T06:10:01.540Z,22.57
2022-08-16T06:12:31.010Z,22.61
2022-08-16T06:15:07.683Z,22.67
2022-08-16T06:17:42.421Z,22.74
2022-08-16T06:20:23.553Z,22.80
2022-08-16T06:22:58.901Z,22.64
2022-08-16T06:25:36.643Z,22.79
2022-08-16T06:28:10.327Z,22.81
2022-08-16T06:30:45.809Z,22.76
2022-08-16T06:33:19.808Z,22.80
2022-08-16T06:35:54.901Z,22.86
2022-08-16T06:38:33.696Z,22.79
2022-08-16T06:41:05.503Z,22.80
2022-08-16T06:43:34.421Z,22.84
2022-08-16T06:46:09.906Z,22.93
2022-08-16T06:48:42.807Z,22.97
2022-08-16T06:51:11.071Z,22.93
2022-08-16T06:53:38.708Z,22.81
2022-08-16T06:56:14.176Z,22.78
2022-08-16T06:58:48.218Z,22.77
2022-08-16T07:01:21.412Z,22.79
2022-08-16T07:03:55.457Z,22.95
2022-08-16T07:06:26.606Z,23.16
2022-08-16T07:08:54.977Z,23.36
2022-08-16T07:11:45.786Z,23.57
2022-08-16T07:14:26.405Z,23.85
2022-08-16T07:16:57.811Z,24.09
2022-08-16T07:20:02.547Z,24.24
2022-08-16T07:22:37.605Z,24.43
2022-08-16T07:25:12.413Z,24.63
2022-08-16T07:27:41.560Z,24.70
2022-08-16T07:30:45.247Z,24.79
2022-08-16T07:33:02.482Z,24.92
2022-08-16T07:35:30.486Z,24.95
2022-08-16T07:37:59.037Z,25.16
2022-08-16T07:40:56.276Z,25.20
2022-08-16T07:43:14.832Z,25.26
2022-08-16T07:45:43.251Z,25.37
2022-08-16T07:48:14.132Z,25.47
2022-08-16T07:50:55.673Z,25.51
2022-08-16T07:53:31.269Z,25.63
2022-08-16T07:56:04.308Z,25.37
2022-08-16T07:58:36.148Z,25.19
2022-08-16T08:01:10.551Z,25.09
2022-08-16T08:03:48.318Z,25.19
2022-08-16T08:06:28.702Z,25.36
2022-08-16T08:08:59.348Z,25.51
2022-08-16T08:11:29.602Z,25.65
2022-08-16T08:14:03.139Z,25.66
2022-08-16T08:16:33.258Z,25.76
2022-08-16T08:19:02.406Z,25.80
2022-08-16T08:21:56.663Z,25.91
2022-08-16T08:24:32.059Z,25.99
2022-08-16T08:27:02.092Z,25.96
2022-08-16T08:29:37.390Z,25.92
2022-08-16T08:32:57.047Z,25.95
2022-08-16T08:35:03.007Z,26.16
2022-08-16T08:37:54.483Z,26.25
2022-08-16T08:40:26.767Z,26.39
2022-08-16T08:43:11.863Z,26.44
2022-08-16T08:45:52.836Z,26.33
2022-08-16T08:48:33.681Z,26.23
2022-08-16T08:51:09.179Z,26.45
2022-08-16T08:53:38.243Z,26.61
2022-08-16T08:56:23.641Z,26.76
2022-08-16T08:58:58.262Z,26.93
2022-08-16T09:01:36.817Z,27.01
2022-08-16T09:04:14.389Z,27.13
2022-08-16T09:06:44.348Z,27.20
2022-08-16T09:09:17.035Z,27.30
2022-08-16T09:11:53.524Z,27.32
2022-08-16T09:14:26.243Z,27.38
2022-08-16T09:17:03.466Z,27.37
2022-08-16T09:19:42.224Z,27.42
2022-08-16T09:22:20.134Z,27.40
2022-08-16T09:24:52.859Z,27.33
2022-08-16T09:27:23.351Z,27.23
2022-08-16T09:30:00.102Z,27.25
2022-08-16T09:32:31.177Z,27.25
2022-08-16T09:35:01.590Z,27.23
2022-08-16T09:37:36.898Z,27.34
2022-08-16T09:40:32.082Z,27.48
2022-08-16T09:42:59.445Z,27.55
2022-08-16T09:45:29.068Z,27.52
2022-08-16T09:47:58.499Z,27.61
2022-08-16T09:50:37.211Z,27.63
2022-08-16T09:53:16.656Z,27.59
2022-08-16T09:55:49.347Z,27.65
2022-08-16T09:58:41.564Z,27.57
2022-08-16T10:01:08.494Z,27.60
2022-08-16T10:03:36.490Z,27.62
2022-08-16T10:06:04.918Z,27.71
2022-08-16T10:08:33.253Z,27.68
2022-08-16T10:11:50.276Z,27.71
2022-08-16T10:14:19.895Z,27.93
2022-08-16T10:16:59.564Z,28.06
2022-08-16T10:19:31.962Z,28.03
2022-08-16T10:22:05.077Z,28.13
2022-08-16T10:24:33.903Z,28.26
2022-08-16T10:27:26.036Z,28.27
2022-08-16T10:30:00.432Z,28.12
2022-08-16T10:32:31.999Z,28.13
2022-08-16T10:35:00.368Z,28.18
2022-08-16T10:37:35.805Z,28.22
2022-08-16T10:40:28.977Z,28.17
2022-08-16T10:42:57.069Z,28.26
2022-08-16T10:45:25.581Z,28.35
2022-08-16T10:48:00.831Z,28.43
2022-08-16T10:50:32.717Z,28.40
2022-08-16T10:53:07.347Z,28.55
2022-08-16T10:55:40.888Z,28.67
2022-08-16T10:58:17.066Z,28.71
2022-08-16T11:00:46.971Z,28.63
2022-08-16T11:06:07.525Z,28.80
2022-08-16T11:08:41.952Z,28.91
2022-08-16T11:11:19.845Z,28.94
2022-08-16T11:14:11.075Z,28.98
2022-08-16T11:19:25.669Z,28.89
2022-08-16T11:22:38.862Z,28.93
2022-08-16T11:24:44.949Z,28.90
2022-08-16T11:27:22.939Z,28.92
2022-08-16T11:29:56.029Z,29.05
2022-08-16T11:32:31.908Z,29.05
2022-08-16T11:35:14.369Z,29.05
2022-08-16T11:38:46.512Z,29.21
2022-08-16T11:40:52.759Z,29.24
2022-08-16T11:43:28.027Z,29.32
2022-08-16T11:45:57.805Z,29.34
2022-08-16T11:48:31.102Z,29.35
2022-08-16T11:50:59.634Z,29.30
2022-08-16T11:53:29.450Z,29.24
2022-08-16T11:56:04.504Z,29.31
2022-08-16T11:58:34.278Z,29.29
2022-08-16T12:01:02.048Z,29.33
2022-08-16T12:03:35.141Z,29.31
2022-08-16T12:06:25.293Z,29.35
2022-08-16T12:09:00.937Z,29.38
2022-08-16T12:11:32.039Z,29.37
2022-08-16T12:14:07.671Z,29.42
2022-08-16T12:16:37.082Z,29.42
2022-08-16T12:19:10.700Z,29.37
2022-08-16T12:21:58.312Z,29.43
2022-08-16T12:24:28.314Z,29.43
2022-08-16T12:26:56.928Z,29.44
2022-08-16T12:29:25.794Z,29.48
2022-08-16T12:32:26.561Z,29.47
2022-08-16T12:34:50.829Z,29.46
2022-08-16T12:37:24.298Z,29.43
2022-08-16T12:39:56.151Z,29.45
2022-08-16T12:42:34.700Z,29.49
2022-08-16T12:45:11.066Z,29.40
2022-08-16T12:48:16.054Z,29.43
2022-08-16T12:50:49.444Z,29.51
2022-08-16T12:53:20.825Z,29.57
2022-08-16T12:55:49.588Z,29.56
2022-08-16T12:58:47.193Z,29.56
2022-08-16T13:01:09.438Z,29.61
2022-08-16T13:03:41.055Z,29.57
2022-08-16T13:06:09.044Z,29.58
2022-08-16T13:08:36.872Z,29.54
2022-08-16T13:11:07.777Z,29.60
2022-08-16T13:13:36.255Z,29.61
2022-08-16T13:16:15.274Z,29.65
2022-08-16T13:18:52.367Z,29.62
2022-08-16T13:21:23.822Z,29.63
2022-08-16T13:23:55.159Z,29.64
2022-08-16T13:26:26.318Z,29.64
2022-08-16T13:28:55.307Z,29.70
2022-08-16T13:31:24.120Z,29.67
2022-08-16T13:33:55.729Z,29.66
2022-08-16T13:36:47.890Z,29.64
2022-08-16T13:39:15.514Z,29.69
2022-08-16T13:41:44.455Z,29.73
2022-08-16T13:44:22.147Z,29.75
2022-08-16T13:47:04.319Z,29.79
2022-08-16T13:49:34.599Z,29.83
2022-08-16T13:52:03.934Z,29.91
2022-08-16T13:54:34.633Z,29.92
2022-08-16T13:57:03.313Z,29.97
2022-08-16T13:59:31.117Z,30.00
2022-08-16T14:02:05.689Z,29.99
2022-08-16T14:04:36.546Z,30.01
2022-08-16T14:07:08.952Z,30.01
2022-08-16T14:09:37.814Z,30.03
2022-08-16T14:12:17.871Z,30.11
2022-08-16T14:14:46.915Z,30.05
2022-08-16T14:17:15.067Z,30.02
2022-08-16T14:19:46.028Z,29.98
2022-08-16T14:22:30.417Z,30.04
2022-08-16T14:25:00.429Z,30.08
2022-08-16T14:27:29.850Z,30.15
2022-08-16T14:29:59.185Z,30.21
2022-08-16T14:32:33.099Z,30.12
2022-08-16T14:35:07.396Z,30.10
2022-08-16T14:37:36.171Z,30.07
2022-08-16T14:40:10.612Z,30.06
2022-08-16T14:42:41.185Z,30.08
2022-08-16T14:45:15.990Z,30.04
2022-08-16T14:47:45.220Z,30.10
2022-08-16T14:50:17.361Z,30.11
2022-08-16T14:52:59.118Z,30.04
2022-08-16T14:55:29.148Z,30.08
2022-08-16T14:57:58.117Z,30.09
2022-08-16T15:00:34.568Z,30.11
2022-08-16T15:03:09.570Z,30.17
2022-08-16T15:05:40.895Z,30.15
2022-08-16T15:08:10.110Z,30.13
2022-08-16T15:10:42.854Z,30.13
2022-08-16T15:13:14.890Z,30.02
2022-08-16T15:15:43.624Z,30.00
2022-08-16T15:18:13.972Z,29.97
2022-08-16T15:20:53.144Z,29.94
2022-08-16T15:23:20.890Z,29.97
2022-08-16T15:26:02.573Z,29.96
2022-08-16T15:28:33.385Z,29.99
2022-08-16T15:31:03.069Z,29.97
2022-08-16T15:33:39.401Z,30.09
2022-08-16T15:36:18.322Z,30.09
2022-08-16T15:39:03.786Z,30.04
2022-08-16T15:41:42.980Z,30.02
2022-08-16T15:44:22.418Z,30.01
2022-08-16T15:47:02.665Z,29.98
2022-08-16T15:49:37.934Z,30.02
2022-08-16T15:52:29.779Z,30.03
2022-08-16T15:55:12.792Z,30.04
2022-08-16T15:57:43.402Z,30.05
2022-08-16T16:00:14.903Z,30.09
2022-08-16T16:03:01.980Z,30.09
2022-08-16T16:05:29.833Z,30.03
2022-08-16T16:08:11.059Z,30.00
2022-08-16T16:10:43.390Z,29.93
2022-08-16T16:13:12.291Z,29.88
2022-08-16T16:15:43.830Z,29.85
2022-08-16T16:18:12.754Z,29.82
2022-08-16T16:20:56.060Z,29.83
2022-08-16T16:23:28.177Z,29.83
2022-08-16T16:25:58.125Z,29.84
2022-08-16T16:28:46.049Z,29.91
2022-08-16T16:31:18.609Z,29.85
2022-08-16T16:33:50.453Z,29.81
2022-08-16T16:36:24.254Z,29.79
2022-08-16T16:38:54.681Z,29.76
2022-08-16T16:41:26.568Z,29.77
2022-08-16T16:43:56.006Z,29.73
2022-08-16T16:46:42.056Z,29.67
2022-08-16T16:49:14.147Z,29.65
2022-08-16T16:51:44.355Z,29.62
2022-08-16T16:54:13.634Z,29.64
2022-08-16T16:56:58.153Z,29.59
2022-08-16T16:59:28.125Z,29.50
2022-08-16T17:02:41.232Z,29.46
2022-08-16T17:04:48.373Z,29.43
2022-08-16T17:07:16.719Z,29.40
2022-08-16T17:09:46.898Z,29.39
2022-08-16T17:12:25.313Z,29.38
2022-08-16T17:15:05.274Z,29.30
2022-08-16T17:17:59.264Z,29.24
2022-08-16T17:20:22.801Z,29.19
2022-08-16T17:22:54.767Z,29.12
2022-08-16T17:25:25.073Z,29.06
2022-08-16T17:27:52.866Z,28.98
2022-08-16T17:30:29.307Z,28.88
2022-08-16T17:33:02.970Z,28.78
2022-08-16T17:35:43.677Z,28.68
2022-08-16T17:38:12.106Z,28.57
2022-08-16T17:41:00.003Z,28.47
2022-08-16T17:43:35.070Z,28.39
2022-08-16T17:46:06.183Z,28.29
2022-08-16T17:48:54.689Z,28.17
2022-08-16T17:51:27.641Z,28.05
2022-08-16T17:53:56.779Z,27.96
2022-08-16T17:56:24.432Z,27.88
2022-08-16T17:58:52.321Z,27.77
2022-08-16T18:01:25.613Z,27.67
2022-08-16T18:04:06.962Z,27.59
2022-08-16T18:06:39.722Z,27.49
2022-08-16T18:09:08.458Z,27.45
2022-08-16T18:11:42.909Z,27.38
2022-08-16T18:14:13.266Z,27.29
2022-08-16T18:16:41.586Z,27.16
2022-08-16T18:19:10.705Z,27.05
2022-08-16T18:21:57.225Z,26.95
2022-08-16T18:24:28.997Z,26.86
2022-08-16T18:26:56.698Z,26.75
2022-08-16T18:29:46.042Z,26.60
2022-08-16T18:32:17.422Z,26.46
2022-08-16T18:34:51.647Z,26.42
2022-08-16T18:37:19.575Z,26.39
2022-08-16T18:39:47.307Z,26.33
2022-08-16T18:42:15.734Z,26.27
2022-08-16T18:44:44.569Z,26.23
2022-08-16T18:47:12.281Z,26.17
2022-08-16T18:49:40.162Z,26.08
2022-08-16T18:52:08.441Z,25.99
2022-08-16T18:55:02.942Z,25.95
2022-08-16T18:57:26.659Z,25.91
2022-08-16T18:59:54.381Z,25.80
2022-08-16T19:02:57.071Z,25.74
2022-08-16T19:05:25.808Z,25.61
2022-08-16T19:07:53.524Z,25.50
2022-08-16T19:10:21.457Z,25.44
2022-08-16T19:12:49.437Z,25.44
2022-08-16T19:15:21.816Z,25.40
2022-08-16T19:17:49.495Z,25.30
2022-08-16T19:20:20.635Z,25.17
2022-08-16T19:23:05.012Z,25.09
2022-08-16T19:25:46.732Z,25.07
2022-08-16T19:28:50.548Z,25.02
2022-08-16T19:31:20.645Z,24.85
2022-08-16T19:33:54.119Z,24.93
2022-08-16T19:36:35.155Z,24.99
2022-08-16T19:39:08.674Z,25.02
2022-08-16T19:41:40.139Z,25.00
2022-08-16T19:44:09.318Z,24.98
2022-08-16T19:46:38.209Z,24.97
2022-08-16T19:49:06.198Z,24.93
2022-08-16T19:51:34.165Z,24.93
2022-08-16T19:54:01.998Z,24.96
2022-08-16T19:56:29.830Z,24.96
2022-08-16T20:01:46.413Z,24.74
2022-08-16T20:04:14.267Z,24.71
2022-08-16T20:06:42.773Z,24.71
2022-08-16T20:09:15.035Z,24.76
2022-08-16T20:11:45.189Z,24.82
2022-08-16T20:14:19.312Z,24.82
2022-08-16T20:16:58.242Z,24.77
2022-08-16T20:19:28.053Z,24.74
2022-08-16T20:22:01.012Z,24.75
2022-08-16T20:24:34.720Z,24.72
2022-08-16T20:27:07.743Z,24.66
2022-08-16T20:29:37.792Z,24.59
2022-08-16T20:32:07.398Z,24.53
2022-08-16T20:34:35.685Z,24.49
2022-08-16T20:37:05.228Z,24.53
2022-08-16T20:39:33.200Z,24.52
2022-08-16T20:42:01.268Z,24.48
2022-08-16T20:44:29.106Z,24.45
2022-08-16T20:46:56.907Z,24.45
2022-08-16T20:49:24.600Z,24.38
2022-08-16T20:51:57.239Z,24.30
2022-08-16T20:54:29.155Z,24.20
2022-08-16T20:56:57.086Z,24.10
2022-08-16T20:59:24.815Z,23.99
2022-08-16T21:01:52.607Z,23.87
2022-08-16T21:04:22.658Z,23.77
2022-08-16T21:06:53.829Z,23.71
2022-08-16T21:09:24.855Z,23.72
2022-08-16T21:11:55.043Z,23.74
2022-08-16T21:14:23.696Z,23.78
2022-08-16T21:16:51.448Z,23.78
2022-08-16T21:19:21.317Z,23.70
2022-08-16T21:21:49.549Z,23.65
2022-08-16T21:24:17.378Z,23.66
2022-08-16T21:26:53.911Z,23.62
2022-08-16T21:29:39.553Z,23.48
2022-08-16T21:32:15.288Z,23.53
2022-08-16T21:34:43.112Z,23.52
2022-08-16T21:37:12.186Z,23.45
2022-08-16T21:39:44.008Z,23.41
2022-08-16T21:42:16.714Z,23.41
2022-08-16T21:44:45.541Z,23.41
2022-08-16T21:47:13.479Z,23.34
2022-08-16T21:49:41.334Z,23.20
2022-08-16T21:52:09.937Z,23.11
2022-08-16T21:54:56.120Z,23.04
2022-08-16T21:57:24.609Z,23.02
2022-08-16T21:59:54.367Z,23.03
2022-08-16T22:02:24.648Z,23.06
2022-08-16T22:04:52.351Z,23.05
2022-08-16T22:07:20.437Z,23.07
2022-08-16T22:09:50.287Z,23.04
2022-08-16T22:12:24.149Z,23.05
2022-08-16T22:14:52.816Z,23.02
2022-08-16T22:17:20.626Z,23.01
2022-08-16T22:19:48.791Z,23.00
2022-08-16T22:22:16.538Z,22.94
2022-08-16T22:24:44.318Z,22.91
2022-08-16T22:27:12.025Z,22.88
2022-08-16T22:29:42.374Z,22.88
2022-08-16T22:32:10.321Z,22.89
2022-08-16T22:34:38.053Z,22.86
2022-08-16T22:37:05.808Z,22.78
2022-08-16T22:39:33.680Z,22.66
2022-08-16T22:42:08.265Z,22.65
2022-08-16T22:44:37.264Z,22.61
2022-08-16T22:47:05.222Z,22.60
2022-08-16T22:49:33.386Z,22.60
2022-08-16T22:52:07.336Z,22.59
2022-08-16T22:54:47.458Z,22.54
2022-08-16T22:57:16.916Z,22.50
2022-08-16T22:59:45.243Z,22.43
2022-08-16T23:02:13.201Z,22.43
2022-08-16T23:04:40.915Z,22.43
2022-08-16T23:07:08.695Z,22.40
2022-08-16T23:09:36.761Z,22.36
2022-08-16T23:12:07.432Z,22.31
2022-08-16T23:14:35.196Z,22.26
2022-08-16T23:17:03.377Z,22.24
2022-08-16T23:19:31.128Z,22.22
2022-08-16T23:21:58.839Z,22.18
2022-08-16T23:24:27.598Z,22.11
2022-08-16T23:26:55.473Z,22.08
2022-08-16T23:29:26.323Z,22.08
2022-08-16T23:32:08.630Z,22.07
2022-08-16T23:34:36.829Z,22.05
2022-08-16T23:37:06.683Z,22.02
2022-08-16T23:39:36.000Z,22.01
2022-08-16T23:42:13.094Z,22.00
2022-08-16T23:44:54.945Z,22.00
2022-08-16T23:47:25.400Z,21.97
2022-08-16T23:50:00.972Z,21.93
2022-08-16T23:52:40.610Z,21.89
2022-08-16T23:55:19.417Z,21.86
2022-08-16T23:57:47.545Z,21.84
